Time;durP1;ratioP1;P1;durP2;ratioP2;P2;SDS_P1;SDS_P2;PMS_P1;PMS_P2;Temp;Humidity;BMP_temperature;BMP_pressure;BME280_temperature;BME280_humidity;BME280_pressure;Samples;Min_cycle;Max_cycle;Signal;HPM_P1;HPM_P2
2022/05/13 00:01:00;;;;;;;;;;;;;;;;;;5051226;28;19917;-56
2022/05/13 00:03:26;;;;;;;;;;;;;;;;;;5051421;28;20355;-53
2022/05/13 00:05:53;;;;;;;;;;;;;;;;;;5051515;28;19935;-52
2022/05/13 00:08:19;;;;;;;;;;;;;;;;;;5051513;28;20000;-50
2022/05/13 00:10:47;;;;;;;;;;;;;;;;;;5051963;28;19913;-55
2022/05/13 00:13:13;;;;;;;;;;;;;;;;;;5055412;28;19908;-56
2022/05/13 00:15:44;;;;;;;;;;;;;;;;;;5055088;28;19909;-59
2022/05/13 00:18:10;;;;;;;;;;;;;;;;;;5055014;28;19912;-47
2022/05/13 00:20:37;;;;;;;;;;;;;;;;;;5054645;28;20312;-50
2022/05/13 00:23:03;;;;;;;;;;;;;;;;;;5055498;28;20394;-52
2022/05/13 00:25:30;;;;;;;;;;;;;;;;;;5055134;28;20382;-49
2022/05/13 00:27:56;;;;;;;;;;;;;;;;;;5053954;28;19919;-46
2022/05/13 00:30:23;;;;;;;;;;;;;;;;;;5055540;28;19920;-47
2022/05/13 00:32:49;;;;;;;;;;;;;;;;;;5055200;28;19947;-46
2022/05/13 00:35:16;;;;;;;;;;;;;;;;;;5053914;28;19965;-44
2022/05/13 00:37:42;;;;;;;;;;;;;;;;;;5053747;28;19931;-45
2022/05/13 00:40:09;;;;;;;;;;;;;;;;;;5055119;28;19970;-50
2022/05/13 00:42:35;;;;;;;;;;;;;;;;;;5055083;28;20331;-54
2022/05/13 00:45:02;;;;;;;;;;;;;;;;;;5055361;28;19938;-49
2022/05/13 00:47:28;;;;;;;;;;;;;;;;;;5054621;28;19959;-54
2022/05/13 00:49:55;;;;;;;;;;;;;;;;;;5054483;28;19909;-50
2022/05/13 00:52:21;;;;;;;;;;;;;;;;;;5054811;28;19940;-52
2022/05/13 00:54:48;;;;;;;;;;;;;;;;;;5054100;28;19909;-52
2022/05/13 00:57:14;;;;;;;;;;;;;;;;;;5053423;28;19963;-53
2022/05/13 00:59:41;;;;;;;;;;;;;;;;;;5054396;28;20374;-46
2022/05/13 01:02:08;;;;;;;;;;;;;;;;;;5053956;28;19924;-56
2022/05/13 01:04:34;;;;;;;;;;;;;;;;;;5053685;28;20382;-51
2022/05/13 01:07:00;;;;;;;;;;;;;;;;;;5052904;28;20003;-43
2022/05/13 01:09:27;;;;;;;;;;;;;;;;;;5054149;28;19909;-53
2022/05/13 01:11:53;;;;;;;;;;;;;;;;;;5053842;28;19908;-43
2022/05/13 01:14:20;;;;;;;;;;;;;;;;;;5053304;28;20387;-50
2022/05/13 01:19:31;;;;;;;;;;;;;;;;;;5053537;28;19935;-44
2022/05/13 01:21:58;;;;;;;;;;;;;;;;;;5052600;28;19917;-40
2022/05/13 01:24:24;;;;;;;;;;;;;;;;;;5052410;28;20264;-55
2022/05/13 01:26:50;;;;;;;;;;;;;;;;;;5054072;28;19908;-60
2022/05/13 01:29:17;;;;;;;;;;;;;;;;;;5053772;28;19908;-45
2022/05/13 01:31:44;;;;;;;;;;;;;;;;;;5053570;28;19916;-54
2022/05/13 01:34:10;;;;;;;;;;;;;;;;;;5053320;28;19915;-45
2022/05/13 01:36:37;;;;;;;;;;;;;;;;;;5053242;28;20407;-50
2022/05/13 01:39:03;;;;;;;;;;;;;;;;;;5053744;28;19940;-52
2022/05/13 01:41:30;;;;;;;;;;;;;;;;;;5053769;28;19917;-51
2022/05/13 01:43:56;;;;;;;;;;;;;;;;;;5052628;28;19912;-46
2022/05/13 01:46:22;;;;;;;;;;;;;;;;;;5053329;28;20331;-41
2022/05/13 01:48:49;;;;;;;;;;;;;;;;;;5053499;28;19916;-54
2022/05/13 01:51:15;;;;;;;;;;;;;;;;;;5052610;28;19920;-50
2022/05/13 01:53:42;;;;;;;;;;;;;;;;;;5052969;28;20014;-46
2022/05/13 01:56:09;;;;;;;;;;;;;;;;;;5052516;28;19931;-44
2022/05/13 01:58:35;;;;;;;;;;;;;;;;;;5053233;28;19921;-56
2022/05/13 02:01:02;;;;;;;;;;;;;;;;;;5053293;28;20394;-59
2022/05/13 02:03:47;;;;;;;;;;;;;;;;;;5053104;28;20352;-50
2022/05/13 02:06:13;;;;;;;;;;;;;;;;;;5051486;28;19966;-52
2022/05/13 02:08:40;;;;;;;;;;;;;;;;;;5053172;28;19916;-55
2022/05/13 02:11:06;;;;;;;;;;;;;;;;;;5052897;28;19908;-50
2022/05/13 02:13:32;;;;;;;;;;;;;;;;;;5053090;28;20232;-58
2022/05/13 02:15:59;;;;;;;;;;;;;;;;;;5052689;28;19913;-60
2022/05/13 02:18:26;;;;;;;;;;;;;;;;;;5052919;28;19984;-48
2022/05/13 02:20:52;;;;;;;;;;;;;;;;;;5052956;28;19927;-53
2022/05/13 02:23:19;;;;;;;;;;;;;;;;;;5053025;28;19909;-51
2022/05/13 02:25:46;;;;;;;;;;;;;;;;;;5052978;28;19913;-54
2022/05/13 02:28:12;;;;;;;;;;;;;;;;;;5052212;28;19977;-47
2022/05/13 02:30:39;;;;;;;;;;;;;;;;;;5052663;28;19966;-54
2022/05/13 02:33:06;;;;;;;;;;;;;;;;;;5052254;28;19967;-55
2022/05/13 02:35:33;;;;;;;;;;;;;;;;;;5049037;28;20015;-52
2022/05/13 02:37:59;;;;;;;;;;;;;;;;;;5051818;28;19912;-51
2022/05/13 02:41:11;;;;;;;;;;;;;;;;;;5052487;28;19921;-46
2022/05/13 02:43:14;;;;;;;;;;;;;;;;;;5052183;28;20007;-48
2022/05/13 02:45:41;;;;;;;;;;;;;;;;;;5052101;28;19915;-52
2022/05/13 02:48:07;;;;;;;;;;;;;;;;;;5052283;28;19913;-48
2022/05/13 02:50:34;;;;;;;;;;;;;;;;;;5052332;28;19916;-53
2022/05/13 02:53:01;;;;;;;;;;;;;;;;;;5052391;28;19948;-49
2022/05/13 02:55:27;;;;;;;;;;;;;;;;;;5052295;28;19909;-49
2022/05/13 02:57:54;;;;;;;;;;;;;;;;;;5051996;28;20146;-43
2022/05/13 03:00:20;;;;;;;;;;;;;;;;;;5052464;28;19920;-51
2022/05/13 03:02:46;;;;;;;;;;;;;;;;;;5052422;28;20391;-57
2022/05/13 03:05:13;;;;;;;;;;;;;;;;;;5052309;28;19916;-51
2022/05/13 03:07:40;;;;;;;;;;;;;;;;;;5052590;28;20376;-56
2022/05/13 03:10:08;;;;;;;;;;;;;;;;;;5051822;28;19912;-43
2022/05/13 03:12:35;;;;;;;;;;;;;;;;;;5052437;28;20280;-50
2022/05/13 03:15:01;;;;;;;;;;;;;;;;;;5052524;28;19909;-53
2022/05/13 03:17:28;;;;;;;;;;;;;;;;;;5052382;28;20005;-55
2022/05/13 03:19:55;;;;;;;;;;;;;;;;;;5051824;28;19916;-50
2022/05/13 03:22:22;;;;;;;;;;;;;;;;;;5051871;28;19974;-46
2022/05/13 03:24:49;;;;;;;;;;;;;;;;;;5051721;28;19999;-52
2022/05/13 03:27:16;;;;;;;;;;;;;;;;;;5052076;28;19996;-57
2022/05/13 03:29:42;;;;;;;;;;;;;;;;;;5052231;28;19916;-52
2022/05/13 03:32:08;;;;;;;;;;;;;;;;;;5051572;28;19915;-49
2022/05/13 03:34:35;;;;;;;;;;;;;;;;;;5051468;28;19924;-46
2022/05/13 03:37:01;;;;;;;;;;;;;;;;;;5051646;28;19909;-50
2022/05/13 03:39:28;;;;;;;;;;;;;;;;;;5051935;28;19909;-46
2022/05/13 03:41:55;;;;;;;;;;;;;;;;;;5051478;28;20359;-45
2022/05/13 03:44:21;;;;;;;;;;;;;;;;;;5051836;28;19909;-52
2022/05/13 03:46:48;;;;;;;;;;;;;;;;;;5054005;28;19981;-55
2022/05/13 03:49:14;;;;;;;;;;;;;;;;;;5055700;28;19909;-50
2022/05/13 03:51:41;;;;;;;;;;;;;;;;;;5055916;28;19952;-48
2022/05/13 03:54:07;;;;;;;;;;;;;;;;;;5055260;28;19913;-49
2022/05/13 03:56:33;;;;;;;;;;;;;;;;;;5055487;28;19944;-56
2022/05/13 03:59:00;;;;;;;;;;;;;;;;;;5054241;28;19916;-51
2022/05/13 04:01:26;;;;;;;;;;;;;;;;;;5055422;28;19917;-55
2022/05/13 04:03:53;;;;;;;;;;;;;;;;;;5055344;28;19912;-55
2022/05/13 04:09:04;;;;;;;;;;;;;;;;;;5055523;28;19919;-51
2022/05/13 04:11:30;;;;;;;;;;;;;;;;;;5055027;28;20001;-53
2022/05/13 04:16:45;;;;;;;;;;;;;;;;;;5055463;28;19935;-47
2022/05/13 04:19:11;;;;;;;;;;;;;;;;;;5055226;28;19913;-50
2022/05/13 04:21:38;;;;;;;;;;;;;;;;;;5055587;28;19917;-45
2022/05/13 04:24:04;;;;;;;;;;;;;;;;;;5055417;28;19909;-53
2022/05/13 04:26:32;;;;;;;;;;;;;;;;;;5055075;28;19908;-48
2022/05/13 04:28:58;;;;;;;;;;;;;;;;;;5054917;28;19939;-50
2022/05/13 04:31:25;;;;;;;;;;;;;;;;;;5055169;28;19932;-46
2022/05/13 04:33:51;;;;;;;;;;;;;;;;;;5054979;28;20003;-45
2022/05/13 04:36:18;;;;;;;;;;;;;;;;;;5053451;28;19909;-53
2022/05/13 04:38:45;;;;;;;;;;;;;;;;;;5054817;28;19999;-48
2022/05/13 04:43:56;;;;;;;;;;;;;;;;;;5054972;28;19919;-43
2022/05/13 04:46:22;;;;;;;;;;;;;;;;;;5054643;28;19931;-45
2022/05/13 04:48:49;;;;;;;;;;;;;;;;;;5054126;28;19951;-44
2022/05/13 04:51:17;;;;;;;;;;;;;;;;;;5054774;28;19913;-59
2022/05/13 04:53:44;;;;;;;;;;;;;;;;;;5055003;28;19952;-55
2022/05/13 04:56:10;;;;;;;;;;;;;;;;;;5054515;28;19916;-49
2022/05/13 04:58:38;;;;;;;;;;;;;;;;;;5054556;28;19985;-46
2022/05/13 05:01:04;;;;;;;;;;;;;;;;;;5054914;28;19917;-44
2022/05/13 05:03:31;;;;;;;;;;;;;;;;;;5053776;28;19915;-49
2022/05/13 05:05:58;;;;;;;;;;;;;;;;;;5054239;28;19909;-45
2022/05/13 05:08:24;;;;;;;;;;;;;;;;;;5054386;28;19916;-45
2022/05/13 05:10:51;;;;;;;;;;;;;;;;;;5054955;28;19909;-41
2022/05/13 05:13:17;;;;;;;;;;;;;;;;;;5053206;28;19908;-48
2022/05/13 05:15:45;;;;;;;;;;;;;;;;;;5054547;28;19919;-55
2022/05/13 05:18:11;;;;;;;;;;;;;;;;;;5053786;28;20386;-52
2022/05/13 05:20:38;;;;;;;;;;;;;;;;;;5053955;28;20393;-52
2022/05/13 05:23:05;;;;;;;;;;;;;;;;;;5053953;28;19909;-53
2022/05/13 05:25:31;;;;;;;;;;;;;;;;;;5054408;28;20314;-48
2022/05/13 05:27:58;;;;;;;;;;;;;;;;;;5054480;28;19913;-49
2022/05/13 05:30:24;;;;;;;;;;;;;;;;;;5054407;28;19989;-60
2022/05/13 05:32:50;;;;;;;;;;;;;;;;;;5052895;28;19909;-56
2022/05/13 05:35:17;;;;;;;;;;;;;;;;;;5053109;28;19955;-48
2022/05/13 05:37:43;;;;;;;;;;;;;;;;;;5052878;28;20316;-52
2022/05/13 05:40:10;;;;;;;;;;;;;;;;;;5053329;28;19916;-54
2022/05/13 05:42:37;;;;;;;;;;;;;;;;;;5053754;28;19916;-48
2022/05/13 05:45:03;;;;;;;;;;;;;;;;;;5053767;28;19916;-56
2022/05/13 05:47:29;;;;;;;;;;;;;;;;;;5053555;28;19955;-44
2022/05/13 05:49:56;;;;;;;;;;;;;;;;;;5053098;28;19920;-50
2022/05/13 05:52:22;;;;;;;;;;;;;;;;;;5053542;28;20343;-55
2022/05/13 05:57:33;;;;;;;;;;;;;;;;;;5053149;28;19915;-49
2022/05/13 06:00:04;;;;;;;;;;;;;;;;;;5053076;28;19908;-54
2022/05/13 06:02:30;;;;;;;;;;;;;;;;;;5053465;28;19908;-57
2022/05/13 06:04:57;;;;;;;;;;;;;;;;;;5051494;28;19908;-52
2022/05/13 06:07:23;;;;;;;;;;;;;;;;;;5052653;28;19921;-46
2022/05/13 06:09:50;;;;;;;;;;;;;;;;;;5052490;28;19963;-47
2022/05/13 06:12:16;;;;;;;;;;;;;;;;;;5052564;28;20351;-48
2022/05/13 06:14:43;;;;;;;;;;;;;;;;;;5052811;28;19908;-55
2022/05/13 06:17:09;;;;;;;;;;;;;;;;;;5052793;28;19909;-44
2022/05/13 06:19:39;;;;;;;;;;;;;;;;;;5051815;28;19912;-51
2022/05/13 06:22:05;;;;;;;;;;;;;;;;;;5050901;28;19940;-48
2022/05/13 06:24:32;;;;;;;;;;;;;;;;;;5052716;28;19959;-53
2022/05/13 06:26:58;;;;;;;;;;;;;;;;;;5053034;28;19904;-55
2022/05/13 06:29:25;;;;;;;;;;;;;;;;;;5052431;28;19952;-56
2022/05/13 06:31:52;;;;;;;;;;;;;;;;;;5052551;28;19911;-59
2022/05/13 06:34:19;;;;;;;;;;;;;;;;;;5052128;28;20260;-40
2022/05/13 06:36:45;;;;;;;;;;;;;;;;;;5052400;28;19937;-54
2022/05/13 06:39:13;;;;;;;;;;;;;;;;;;5052497;28;19911;-51
2022/05/13 06:41:40;;;;;;;;;;;;;;;;;;5052196;28;19928;-55
2022/05/13 06:44:06;;;;;;;;;;;;;;;;;;5051804;28;20283;-52
2022/05/13 06:46:35;;;;;;;;;;;;;;;;;;5052357;28;20007;-46
2022/05/13 06:49:03;;;;;;;;;;;;;;;;;;5051447;28;19913;-55
2022/05/13 06:51:30;;;;;;;;;;;;;;;;;;5052062;28;20383;-46
2022/05/13 06:53:57;;;;;;;;;;;;;;;;;;5051719;28;19997;-48
2022/05/13 06:56:23;;;;;;;;;;;;;;;;;;5051930;28;19954;-55
2022/05/13 06:58:49;;;;;;;;;;;;;;;;;;5052647;28;20359;-56
2022/05/13 07:01:17;;;;;;;;;;;;;;;;;;5052359;28;20360;-50
2022/05/13 07:03:44;;;;;;;;;;;;;;;;;;5051892;28;19909;-46
2022/05/13 07:06:10;;;;;;;;;;;;;;;;;;5051779;28;19912;-57
2022/05/13 07:08:37;;;;;;;;;;;;;;;;;;5051866;28;19959;-51
2022/05/13 07:11:03;;;;;;;;;;;;;;;;;;5052024;28;19909;-59
2022/05/13 07:13:30;;;;;;;;;;;;;;;;;;5051854;28;19908;-49
2022/05/13 07:15:56;;;;;;;;;;;;;;;;;;5051947;28;20315;-48
2022/05/13 07:18:22;;;;;;;;;;;;;;;;;;5052794;28;20382;-60
2022/05/13 07:20:49;;;;;;;;;;;;;;;;;;5054720;28;20321;-57
2022/05/13 07:23:16;;;;;;;;;;;;;;;;;;5055993;28;19913;-50
2022/05/13 07:25:42;;;;;;;;;;;;;;;;;;5056241;28;19910;-42
2022/05/13 07:28:09;;;;;;;;;;;;;;;;;;5055581;28;19909;-50
2022/05/13 07:30:38;;;;;;;;;;;;;;;;;;5055968;28;19913;-53
2022/05/13 07:33:04;;;;;;;;;;;;;;;;;;5054675;28;20414;-44
2022/05/13 07:35:31;;;;;;;;;;;;;;;;;;5055742;28;19909;-45
2022/05/13 07:37:57;;;;;;;;;;;;;;;;;;5055617;28;19909;-44
2022/05/13 07:43:08;;;;;;;;;;;;;;;;;;5056212;28;19919;-54
2022/05/13 07:45:35;;;;;;;;;;;;;;;;;;5056174;28;19958;-53
2022/05/13 07:48:02;;;;;;;;;;;;;;;;;;5055390;28;20356;-50
2022/05/13 07:50:28;;;;;;;;;;;;;;;;;;5056212;28;19916;-46
2022/05/13 07:52:55;;;;;;;;;;;;;;;;;;5055792;28;19923;-45
2022/05/13 07:55:21;;;;;;;;;;;;;;;;;;5055945;28;19909;-47
2022/05/13 07:57:48;;;;;;;;;;;;;;;;;;5054588;28;19909;-55
2022/05/13 08:00:27;;;;;;;;;;;;;;;;;;5055592;28;20279;-55
2022/05/13 08:02:54;;;;;;;;;;;;;;;;;;5055700;28;20418;-49
2022/05/13 08:05:20;;;;;;;;;;;;;;;;;;5056453;28;19909;-51
2022/05/13 08:07:47;;;;;;;;;;;;;;;;;;5056103;28;19935;-58
2022/05/13 08:10:14;;;;;;;;;;;;;;;;;;5055351;28;19916;-56
2022/05/13 08:12:40;;;;;;;;;;;;;;;;;;5055720;28;19916;-55
2022/05/13 08:15:07;;;;;;;;;;;;;;;;;;5055597;28;19952;-52
2022/05/13 08:17:33;;;;;;;;;;;;;;;;;;5055789;28;19930;-47
2022/05/13 08:20:00;;;;;;;;;;;;;;;;;;5055413;28;19909;-57
2022/05/13 08:22:26;;;;;;;;;;;;;;;;;;5055546;28;19933;-47
2022/05/13 08:24:53;;;;;;;;;;;;;;;;;;5055792;28;19913;-47
2022/05/13 08:27:19;;;;;;;;;;;;;;;;;;5055390;28;19913;-48
2022/05/13 08:29:46;;;;;;;;;;;;;;;;;;5055303;28;19913;-58
2022/05/13 08:32:12;;;;;;;;;;;;;;;;;;5054525;28;19916;-45
2022/05/13 08:34:38;;;;;;;;;;;;;;;;;;5054899;28;19909;-50
2022/05/13 08:37:05;;;;;;;;;;;;;;;;;;5054198;28;19946;-51
2022/05/13 08:39:31;;;;;;;;;;;;;;;;;;5054963;28;19909;-58
2022/05/13 08:41:58;;;;;;;;;;;;;;;;;;5054661;28;19952;-56
2022/05/13 08:44:25;;;;;;;;;;;;;;;;;;5054985;28;19909;-50
2022/05/13 08:46:51;;;;;;;;;;;;;;;;;;5054892;28;19935;-55
2022/05/13 08:49:18;;;;;;;;;;;;;;;;;;5054332;28;19909;-54
2022/05/13 08:51:45;;;;;;;;;;;;;;;;;;5054804;28;20443;-50
2022/05/13 08:54:14;;;;;;;;;;;;;;;;;;5054449;28;20273;-57
2022/05/13 08:56:40;;;;;;;;;;;;;;;;;;5055397;28;19935;-57
2022/05/13 08:59:08;;;;;;;;;;;;;;;;;;5055162;28;19909;-51
2022/05/13 09:01:35;;;;;;;;;;;;;;;;;;5054636;28;20383;-54
2022/05/13 09:04:01;;;;;;;;;;;;;;;;;;5054075;28;19909;-53
2022/05/13 09:06:28;;;;;;;;;;;;;;;;;;5054524;28;19916;-52
2022/05/13 09:08:55;;;;;;;;;;;;;;;;;;5053427;28;20398;-45
2022/05/13 09:11:21;;;;;;;;;;;;;;;;;;5054252;28;20004;-53
2022/05/13 09:13:48;;;;;;;;;;;;;;;;;;5055065;28;19963;-56
2022/05/13 09:16:14;;;;;;;;;;;;;;;;;;5054383;28;19925;-52
2022/05/13 09:18:40;;;;;;;;;;;;;;;;;;5055046;28;19909;-52
2022/05/13 09:21:07;;;;;;;;;;;;;;;;;;5054479;28;19919;-53
2022/05/13 09:23:33;;;;;;;;;;;;;;;;;;5054901;28;19944;-43
2022/05/13 09:26:01;;;;;;;;;;;;;;;;;;5054557;28;19905;-54
2022/05/13 09:28:28;;;;;;;;;;;;;;;;;;5053816;28;19979;-55
2022/05/13 09:30:55;;;;;;;;;;;;;;;;;;5054400;28;19972;-47
2022/05/13 09:33:21;;;;;;;;;;;;;;;;;;5054442;28;19908;-45
2022/05/13 09:35:48;;;;;;;;;;;;;;;;;;5054216;28;19909;-46
2022/05/13 09:38:15;;;;;;;;;;;;;;;;;;5053818;28;20067;-44
2022/05/13 09:40:42;;;;;;;;;;;;;;;;;;5053806;28;19913;-53
2022/05/13 09:43:10;;;;;;;;;;;;;;;;;;5053190;28;19989;-54
2022/05/13 09:45:36;;;;;;;;;;;;;;;;;;5053846;28;19908;-61
2022/05/13 09:48:03;;;;;;;;;;;;;;;;;;5053518;28;20031;-61
2022/05/13 09:50:29;;;;;;;;;;;;;;;;;;5053723;28;19919;-46
2022/05/13 09:52:56;;;;;;;;;;;;;;;;;;5054019;28;20417;-46
2022/05/13 09:55:22;;;;;;;;;;;;;;;;;;5054239;28;19909;-52
2022/05/13 09:57:49;;;;;;;;;;;;;;;;;;5053873;28;19916;-56
2022/05/13 10:00:15;;;;;;;;;;;;;;;;;;5053993;28;19924;-54
2022/05/13 10:02:42;;;;;;;;;;;;;;;;;;5053640;28;19912;-53
2022/05/13 10:05:08;;;;;;;;;;;;;;;;;;5053577;28;19936;-47
2022/05/13 10:07:35;;;;;;;;;;;;;;;;;;5053114;28;19929;-59
2022/05/13 10:15:31;;;;;;;;;;;;;;;;;;5053732;28;19974;-55
2022/05/13 10:17:57;;;;;;;;;;;;;;;;;;5053209;28;19909;-52
2022/05/13 10:20:24;;;;;;;;;;;;;;;;;;5053336;28;22164;-52
2022/05/13 10:22:50;;;;;;;;;;;;;;;;;;5053497;28;19915;-61
2022/05/13 10:25:17;;;;;;;;;;;;;;;;;;5053127;28;19909;-56
2022/05/13 10:27:45;;;;;;;;;;;;;;;;;;5053333;28;19943;-50
2022/05/13 10:30:11;;;;;;;;;;;;;;;;;;5053181;28;19909;-52
2022/05/13 10:32:38;;;;;;;;;;;;;;;;;;5053327;28;19921;-59
2022/05/13 10:35:04;;;;;;;;;;;;;;;;;;5053385;28;20382;-57
2022/05/13 10:37:31;;;;;;;;;;;;;;;;;;5053583;28;19909;-55
2022/05/13 10:39:57;;;;;;;;;;;;;;;;;;5052611;28;19913;-57
2022/05/13 10:42:24;;;;;;;;;;;;;;;;;;5052852;28;19924;-55
2022/05/13 10:44:50;;;;;;;;;;;;;;;;;;5052768;28;19909;-54
2022/05/13 10:47:17;;;;;;;;;;;;;;;;;;5053006;28;19940;-51
2022/05/13 10:49:43;;;;;;;;;;;;;;;;;;5052877;28;19975;-58
2022/05/13 10:52:10;;;;;;;;;;;;;;;;;;5052953;28;19909;-51
2022/05/13 10:54:36;;;;;;;;;;;;;;;;;;5052784;28;19967;-57
2022/05/13 10:57:03;;;;;;;;;;;;;;;;;;5052686;28;19909;-57
2022/05/13 10:59:29;;;;;;;;;;;;;;;;;;5052909;28;19908;-58
2022/05/13 11:01:56;;;;;;;;;;;;;;;;;;5052434;28;20027;-62
2022/05/13 11:04:22;;;;;;;;;;;;;;;;;;5052774;28;19923;-53
2022/05/13 11:06:49;;;;;;;;;;;;;;;;;;5052941;28;19921;-59
2022/05/13 11:09:15;;;;;;;;;;;;;;;;;;5052407;28;19913;-54
2022/05/13 11:11:42;;;;;;;;;;;;;;;;;;5052636;28;19954;-54
2022/05/13 11:14:09;;;;;;;;;;;;;;;;;;5052757;28;19908;-58
2022/05/13 11:16:35;;;;;;;;;;;;;;;;;;5052819;28;19913;-49
2022/05/13 11:19:02;;;;;;;;;;;;;;;;;;5052774;28;19992;-55
2022/05/13 11:21:29;;;;;;;;;;;;;;;;;;5052666;28;19917;-55
2022/05/13 11:26:40;;;;;;;;;;;;;;;;;;5052899;28;20001;-53
2022/05/13 11:29:06;;;;;;;;;;;;;;;;;;5052810;28;19913;-57
2022/05/13 11:31:33;;;;;;;;;;;;;;;;;;5052588;28;20007;-59
2022/05/13 11:33:59;;;;;;;;;;;;;;;;;;5052858;28;20302;-55
2022/05/13 11:36:26;;;;;;;;;;;;;;;;;;5052777;28;19920;-52
2022/05/13 11:38:52;;;;;;;;;;;;;;;;;;5052638;28;19909;-54
2022/05/13 11:41:19;;;;;;;;;;;;;;;;;;5052698;28;19952;-57
2022/05/13 11:43:45;;;;;;;;;;;;;;;;;;5052740;28;19924;-57
2022/05/13 11:46:11;;;;;;;;;;;;;;;;;;5052345;28;19916;-56
2022/05/13 11:48:38;;;;;;;;;;;;;;;;;;5052499;28;19963;-53
2022/05/13 11:51:04;;;;;;;;;;;;;;;;;;5052558;28;19916;-49
2022/05/13 11:53:31;;;;;;;;;;;;;;;;;;5052631;28;19912;-58
2022/05/13 11:55:57;;;;;;;;;;;;;;;;;;5052288;28;19909;-61
2022/05/13 11:58:24;;;;;;;;;;;;;;;;;;5052272;28;19909;-57
2022/05/13 12:00:50;;;;;;;;;;;;;;;;;;5052865;28;19916;-60
2022/05/13 12:03:17;;;;;;;;;;;;;;;;;;5052407;28;19916;-57
2022/05/13 12:05:43;;;;;;;;;;;;;;;;;;5052442;28;19913;-53
2022/05/13 12:08:10;;;;;;;;;;;;;;;;;;5055184;28;19970;-59
2022/05/13 12:10:36;;;;;;;;;;;;;;;;;;5056009;28;19912;-43
2022/05/13 12:13:03;;;;;;;;;;;;;;;;;;5055805;28;19908;-53
2022/05/13 12:15:29;;;;;;;;;;;;;;;;;;5056067;28;19910;-53
2022/05/13 12:17:56;;;;;;;;;;;;;;;;;;5055518;28;19931;-57
2022/05/13 12:20:22;;;;;;;;;;;;;;;;;;5055790;28;19909;-53
2022/05/13 12:22:49;;;;;;;;;;;;;;;;;;5054992;28;19915;-59
2022/05/13 12:25:15;;;;;;;;;;;;;;;;;;5055046;28;19999;-55
2022/05/13 12:27:42;;;;;;;;;;;;;;;;;;5055786;28;19908;-48
2022/05/13 12:30:09;;;;;;;;;;;;;;;;;;5055608;28;19915;-54
2022/05/13 12:32:35;;;;;;;;;;;;;;;;;;5055343;28;20023;-58
2022/05/13 12:37:46;;;;;;;;;;;;;;;;;;5055801;28;20426;-57
2022/05/13 12:40:13;;;;;;;;;;;;;;;;;;5055392;28;20278;-61
2022/05/13 12:42:39;;;;;;;;;;;;;;;;;;5055466;28;19966;-58
2022/05/13 12:45:06;;;;;;;;;;;;;;;;;;5055250;28;19913;-55
2022/05/13 12:47:32;;;;;;;;;;;;;;;;;;5055364;28;19909;-53
2022/05/13 12:49:59;;;;;;;;;;;;;;;;;;5055513;28;19909;-56
2022/05/13 12:52:26;;;;;;;;;;;;;;;;;;5055534;28;20383;-56
2022/05/13 12:54:53;;;;;;;;;;;;;;;;;;5055232;28;20360;-54
2022/05/13 12:57:19;;;;;;;;;;;;;;;;;;5055460;28;19909;-39
2022/05/13 12:59:47;;;;;;;;;;;;;;;;;;5055350;28;19912;-53
2022/05/13 13:02:13;;;;;;;;;;;;;;;;;;5054835;28;19921;-52
2022/05/13 13:04:40;;;;;;;;;;;;;;;;;;5055332;28;19962;-50
2022/05/13 13:07:06;;;;;;;;;;;;;;;;;;5055314;28;19975;-61
2022/05/13 13:09:33;;;;;;;;;;;;;;;;;;5055264;28;20262;-57
2022/05/13 13:11:59;;;;;;;;;;;;;;;;;;5054880;28;19909;-56
2022/05/13 13:14:26;;;;;;;;;;;;;;;;;;5055079;28;19995;-54
2022/05/13 13:16:52;;;;;;;;;;;;;;;;;;5054552;28;19908;-53
2022/05/13 13:19:19;;;;;;;;;;;;;;;;;;5054897;28;19916;-54
2022/05/13 13:21:45;;;;;;;;;;;;;;;;;;5054809;28;19920;-54
2022/05/13 13:24:13;;;;;;;;;;;;;;;;;;5054386;28;19909;-51
2022/05/13 13:26:39;;;;;;;;;;;;;;;;;;5054807;28;19924;-51
2022/05/13 13:29:06;;;;;;;;;;;;;;;;;;5054442;28;20367;-58
2022/05/13 13:31:33;;;;;;;;;;;;;;;;;;5054379;28;19909;-51
2022/05/13 13:33:59;;;;;;;;;;;;;;;;;;5054087;28;19970;-60
2022/05/13 13:36:26;;;;;;;;;;;;;;;;;;5054348;28;19935;-59
2022/05/13 13:38:52;;;;;;;;;;;;;;;;;;5054062;28;19909;-60
2022/05/13 13:41:19;;;;;;;;;;;;;;;;;;5053909;28;19916;-55
2022/05/13 13:43:46;;;;;;;;;;;;;;;;;;5054596;28;19935;-61
2022/05/13 13:46:12;;;;;;;;;;;;;;;;;;5053863;28;19999;-48
2022/05/13 13:48:39;;;;;;;;;;;;;;;;;;5054406;28;19920;-53
2022/05/13 13:51:05;;;;;;;;;;;;;;;;;;5053915;28;20149;-56
2022/05/13 13:53:32;;;;;;;;;;;;;;;;;;5053827;28;19909;-47
2022/05/13 13:55:58;;;;;;;;;;;;;;;;;;5053951;28;19909;-59
2022/05/13 13:58:25;;;;;;;;;;;;;;;;;;5054290;28;19909;-56
2022/05/13 14:00:51;;;;;;;;;;;;;;;;;;5053707;28;19920;-54
2022/05/13 14:03:18;;;;;;;;;;;;;;;;;;5054064;28;19908;-53
2022/05/13 14:05:44;;;;;;;;;;;;;;;;;;5053976;28;20348;-53
2022/05/13 14:08:11;;;;;;;;;;;;;;;;;;5053995;28;20078;-55
2022/05/13 14:10:38;;;;;;;;;;;;;;;;;;5053533;28;20404;-56
2022/05/13 14:13:04;;;;;;;;;;;;;;;;;;5053469;28;20332;-56
2022/05/13 14:15:31;;;;;;;;;;;;;;;;;;5053349;28;20290;-59
2022/05/13 14:17:57;;;;;;;;;;;;;;;;;;5053502;28;19916;-58
2022/05/13 14:20:26;;;;;;;;;;;;;;;;;;5053849;28;19909;-49
2022/05/13 14:22:52;;;;;;;;;;;;;;;;;;5053468;28;19913;-56
2022/05/13 14:25:19;;;;;;;;;;;;;;;;;;5053340;28;19958;-47
2022/05/13 14:27:46;;;;;;;;;;;;;;;;;;5053209;28;19909;-52
2022/05/13 14:30:12;;;;;;;;;;;;;;;;;;5052689;28;20355;-49
2022/05/13 14:32:39;;;;;;;;;;;;;;;;;;5053422;28;19920;-52
2022/05/13 14:35:06;;;;;;;;;;;;;;;;;;5053431;28;20433;-58
2022/05/13 14:37:32;;;;;;;;;;;;;;;;;;5053520;28;19920;-58
2022/05/13 14:39:59;;;;;;;;;;;;;;;;;;5053173;28;20283;-59
2022/05/13 14:42:26;;;;;;;;;;;;;;;;;;5053220;28;19936;-55
2022/05/13 14:44:52;;;;;;;;;;;;;;;;;;5053378;28;19983;-58
2022/05/13 14:47:20;;;;;;;;;;;;;;;;;;5053073;28;19909;-59
2022/05/13 14:49:46;;;;;;;;;;;;;;;;;;5052917;28;19913;-56
2022/05/13 14:52:13;;;;;;;;;;;;;;;;;;5053109;28;19916;-54
2022/05/13 14:54:40;;;;;;;;;;;;;;;;;;5053296;28;20298;-53
2022/05/13 14:57:06;;;;;;;;;;;;;;;;;;5053457;28;20403;-59
2022/05/13 14:59:33;;;;;;;;;;;;;;;;;;5053270;28;19913;-49
2022/05/13 15:01:59;;;;;;;;;;;;;;;;;;5052635;28;19916;-55
2022/05/13 15:04:26;;;;;;;;;;;;;;;;;;5053044;28;19913;-58
2022/05/13 15:06:52;;;;;;;;;;;;;;;;;;5052857;28;19927;-59
2022/05/13 15:09:19;;;;;;;;;;;;;;;;;;5053392;28;20271;-57
2022/05/13 15:11:45;;;;;;;;;;;;;;;;;;5052951;28;19935;-52
2022/05/13 15:14:12;;;;;;;;;;;;;;;;;;5052592;28;19909;-54
2022/05/13 15:16:38;;;;;;;;;;;;;;;;;;5052855;28;19913;-49
2022/05/13 15:19:05;;;;;;;;;;;;;;;;;;5052937;28;19916;-50
2022/05/13 15:21:31;;;;;;;;;;;;;;;;;;5052389;28;20070;-46
2022/05/13 15:23:58;;;;;;;;;;;;;;;;;;5052484;28;19924;-52
2022/05/13 15:26:24;;;;;;;;;;;;;;;;;;5052741;28;19999;-56
2022/05/13 15:28:51;;;;;;;;;;;;;;;;;;5052775;28;20283;-57
2022/05/13 15:31:17;;;;;;;;;;;;;;;;;;5052802;28;19905;-56
2022/05/13 15:33:44;;;;;;;;;;;;;;;;;;5052717;28;19948;-45
2022/05/13 15:36:10;;;;;;;;;;;;;;;;;;5051087;28;19920;-53
2022/05/13 15:38:37;;;;;;;;;;;;;;;;;;5053011;28;19915;-50
2022/05/13 15:41:04;;;;;;;;;;;;;;;;;;5052697;28;19912;-58
2022/05/13 15:43:30;;;;;;;;;;;;;;;;;;5056417;28;19909;-53
2022/05/13 15:45:57;;;;;;;;;;;;;;;;;;5056195;28;20007;-53
2022/05/13 15:48:23;;;;;;;;;;;;;;;;;;5056732;28;19908;-52
2022/05/13 15:53:34;;;;;;;;;;;;;;;;;;5056446;28;19962;-56
2022/05/13 15:56:01;;;;;;;;;;;;;;;;;;5056270;28;19974;-47
2022/05/13 15:58:28;;;;;;;;;;;;;;;;;;5056324;28;19952;-52
2022/05/13 16:00:54;;;;;;;;;;;;;;;;;;5056121;28;19913;-52
2022/05/13 16:03:21;;;;;;;;;;;;;;;;;;5056223;28;19967;-58
2022/05/13 16:05:49;;;;;;;;;;;;;;;;;;5056076;28;19963;-49
2022/05/13 16:08:15;;;;;;;;;;;;;;;;;;5055880;28;19917;-56
2022/05/13 16:10:41;;;;;;;;;;;;;;;;;;5056014;28;19916;-52
2022/05/13 16:13:08;;;;;;;;;;;;;;;;;;5056062;28;19913;-50
2022/05/13 16:15:34;;;;;;;;;;;;;;;;;;5055743;28;19913;-47
2022/05/13 16:18:01;;;;;;;;;;;;;;;;;;5055506;28;19912;-55
2022/05/13 16:20:28;;;;;;;;;;;;;;;;;;5055886;28;20363;-57
2022/05/13 16:22:54;;;;;;;;;;;;;;;;;;5055827;28;19932;-51
2022/05/13 16:25:21;;;;;;;;;;;;;;;;;;5055928;28;19908;-52
2022/05/13 16:27:47;;;;;;;;;;;;;;;;;;5054800;28;19979;-49
2022/05/13 16:30:14;;;;;;;;;;;;;;;;;;5055483;28;19962;-52
2022/05/13 16:32:40;;;;;;;;;;;;;;;;;;5055673;28;19908;-55
2022/05/13 16:35:08;;;;;;;;;;;;;;;;;;5055679;28;19909;-52
2022/05/13 16:37:46;;;;;;;;;;;;;;;;;;5054305;28;19966;-57
2022/05/13 16:40:13;;;;;;;;;;;;;;;;;;5055333;28;19962;-57
2022/05/13 16:42:39;;;;;;;;;;;;;;;;;;5055445;28;19917;-56
2022/05/13 16:45:06;;;;;;;;;;;;;;;;;;5055380;28;20389;-55
2022/05/13 16:47:32;;;;;;;;;;;;;;;;;;5055336;28;20251;-58
2022/05/13 16:49:59;;;;;;;;;;;;;;;;;;5055262;28;19999;-53
2022/05/13 16:52:25;;;;;;;;;;;;;;;;;;5054923;28;19908;-51
2022/05/13 16:54:52;;;;;;;;;;;;;;;;;;5055310;28;20304;-52
2022/05/13 16:57:18;;;;;;;;;;;;;;;;;;5054996;28;20267;-52
2022/05/13 16:59:45;;;;;;;;;;;;;;;;;;5054871;28;20364;-48
2022/05/13 17:02:11;;;;;;;;;;;;;;;;;;5054947;28;20256;-51
2022/05/13 17:04:38;;;;;;;;;;;;;;;;;;5055138;28;19909;-56
2022/05/13 17:07:04;;;;;;;;;;;;;;;;;;5054889;28;19921;-58
2022/05/13 17:17:45;;;;;;;;;;;;;;;;;;5054898;28;19970;-51
2022/05/13 17:20:11;;;;;;;;;;;;;;;;;;5054485;28;19916;-53